Погода Ипоранна неделю

Гояс, Бразилия

20 - 26 июля
  • 20июля
    Сегодня
    +15°
    +32°
    Ясно и безоблачно
    ВремяПогодаТемператураВлажностьДавлениеВетер, м/сВероятность осадков
    00:00Ясно и безоблачно+21°C41 %717 мм2.9 м/с5 %
    03:00Ясно и безоблачно+19°C45 %716 мм3.1 м/с5 %
    06:00Ясно и безоблачно+17°C56 %716 мм2.0 м/с5 %
    09:00Ясно и безоблачно+21°C43 %718 мм2.0 м/с5 %
    12:00Ясно и безоблачно+29°C25 %718 мм4.0 м/с5 %
    15:00Ясно и безоблачно+31°C22 %716 мм2.5 м/с5 %
    18:00Ясно и безоблачно+28°C31 %715 мм1.9 м/с5 %
    21:00Ясно и безоблачно+24°C35 %716 мм1.4 м/с5 %
  • 21июля
    Воскресенье
    +16°
    +32°
    Ясно и безоблачно
    ВремяПогодаТемператураВлажностьДавлениеВетер, м/сВероятность осадков
    00:00Ясно и безоблачно+19°C43 %715 мм2.3 м/с5 %
    03:00Ясно и безоблачно+18°C46 %714 мм2.5 м/с5 %
    06:00Ясно и безоблачно+16°C55 %714 мм2.3 м/с5 %
    09:00Ясно и безоблачно+23°C40 %717 мм2.1 м/с5 %
    12:00Ясно и безоблачно+29°C29 %717 мм3.2 м/с5 %
    15:00Ясно и безоблачно+32°C25 %715 мм1.7 м/с5 %
    18:00Ясно и безоблачно+28°C33 %715 мм1.2 м/с5 %
    21:00Ясно и безоблачно+23°C39 %715 мм2.1 м/с5 %
  • 22июля
    Понедельник
    +16°
    +32°
    Ясно и безоблачно
    ВремяПогодаТемператураВлажностьДавлениеВетер, м/сВероятность осадков
    00:00Ясно и безоблачно+20°C47 %715 мм2.1 м/с5 %
    03:00Ясно и безоблачно+17°C53 %715 мм2.3 м/с5 %
    06:00Ясно и безоблачно+17°C54 %715 мм2.2 м/с5 %
    09:00Ясно и безоблачно+22°C41 %718 мм2.2 м/с5 %
    12:00Ясно и безоблачно+29°C28 %718 мм2.9 м/с5 %
    15:00Ясно и безоблачно+32°C23 %716 мм1.9 м/с5 %
    18:00Ясно и безоблачно+29°C29 %716 мм1.6 м/с5 %
    21:00Ясно и безоблачно+23°C37 %716 мм2.4 м/с5 %
  • 23июля
    Вторник
    +16°
    +33°
    Ясно и безоблачно
    ВремяПогодаТемператураВлажностьДавлениеВетер, м/сВероятность осадков
    00:00Ясно и безоблачно+21°C42 %717 мм2.0 м/с5 %
    03:00Ясно и безоблачно+18°C46 %715 мм2.4 м/с5 %
    06:00Ясно и безоблачно+17°C55 %716 мм2.2 м/с5 %
    09:00Ясно и безоблачно+23°C43 %718 мм2.1 м/с5 %
    12:00Ясно и безоблачно+30°C25 %718 мм3.1 м/с5 %
    15:00Ясно и безоблачно+32°C22 %716 мм2.3 м/с5 %
    18:00Ясно и безоблачно+29°C29 %716 мм1.9 м/с5 %
    21:00Ясно и безоблачно+24°C34 %716 мм2.5 м/с5 %
  • 24июля
    Среда
    +16°
    +33°
    Ясно и безоблачно
    ВремяПогодаТемператураВлажностьДавлениеВетер, м/сВероятность осадков
    00:00Ясно и безоблачно+19°C46 %716 мм2.3 м/с5 %
    03:00Ясно и безоблачно+19°C43 %715 мм2.7 м/с5 %
    06:00Ясно и безоблачно+17°C51 %715 мм2.1 м/с5 %
    09:00Ясно и безоблачно+24°C36 %718 мм2.3 м/с5 %
    12:00Ясно и безоблачно+30°C25 %719 мм3.5 м/с5 %
    15:00Ясно и безоблачно+33°C23 %717 мм1.5 м/с5 %
    18:00Ясно и безоблачно+30°C31 %716 мм1.8 м/с5 %
    21:00Ясно и безоблачно+24°C36 %717 мм1.6 м/с5 %
Мы используем cookies
Соглашаюсь